Terminal Aerodrome Forecast
Issued by NWS Billings, MT

Home | Current Version | Previous Version | Text Only | Print | Product List | Glossary On
Versions: 1 2 3 4 5 6 7 8 9 10 11 12 13 14 15 16 17 18 19 20 21 22 23 24 25 26 27 28 29 30 31 32 33 34
052
FTUS45 KBYZ 210531
TAFBIL
TAF
KBIL 210531Z 2106/2206 23011KT P6SM BKN100
     FM211200 24015KT P6SM VCSH BKN080
     FM211800 27025G37KT P6SM BKN050 OVC100
     FM220200 27015KT P6SM OVC100=

USA.gov is the U.S. government's official web portal to all federal, state and local government web resources and services.